createdAt,value
2022-07-29T00:02:13.684Z,21.55
2022-07-29T00:04:44.000Z,21.48
2022-07-29T00:07:14.325Z,21.47
2022-07-29T00:09:51.984Z,21.51
2022-07-29T00:12:26.387Z,21.35
2022-07-29T00:14:58.551Z,21.31
2022-07-29T00:17:31.333Z,21.31
2022-07-29T00:20:01.488Z,21.22
2022-07-29T00:22:31.747Z,21.18
2022-07-29T00:25:01.920Z,21.23
2022-07-29T00:27:32.100Z,21.19
2022-07-29T00:30:02.248Z,21.18
2022-07-29T00:32:35.152Z,21.18
2022-07-29T00:35:17.729Z,21.16
2022-07-29T00:37:48.226Z,21.13
2022-07-29T00:40:18.391Z,21.13
2022-07-29T00:42:56.736Z,21.12
2022-07-29T00:45:26.972Z,21.14
2022-07-29T00:47:59.887Z,21.11
2022-07-29T00:50:30.687Z,21.11
2022-07-29T00:53:00.702Z,21.05
2022-07-29T00:55:31.372Z,21.10
2022-07-29T00:58:02.328Z,21.08
2022-07-29T01:00:33.570Z,21.02
2022-07-29T01:03:06.647Z,20.99
2022-07-29T01:05:48.056Z,20.89
2022-07-29T01:08:21.358Z,20.96
2022-07-29T01:10:53.329Z,21.01
2022-07-29T01:13:25.270Z,20.87
2022-07-29T01:16:02.533Z,20.75
2022-07-29T01:18:42.204Z,20.69
2022-07-29T01:21:31.833Z,20.67
2022-07-29T01:24:23.796Z,20.62
2022-07-29T01:27:01.581Z,20.56
2022-07-29T01:30:24.693Z,20.73
2022-07-29T01:33:00.496Z,20.79
2022-07-29T01:35:39.306Z,20.81
2022-07-29T01:38:16.558Z,20.80
2022-07-29T01:40:52.502Z,20.81
2022-07-29T01:43:29.788Z,20.83
2022-07-29T01:46:09.497Z,20.87
2022-07-29T01:48:46.261Z,20.90
2022-07-29T01:51:23.423Z,20.94
2022-07-29T01:54:03.546Z,20.94
2022-07-29T01:56:36.377Z,20.95
2022-07-29T01:59:09.383Z,20.98
2022-07-29T02:01:47.054Z,20.96
2022-07-29T02:04:29.169Z,20.95
2022-07-29T02:07:06.685Z,20.94
2022-07-29T02:09:39.918Z,20.91
2022-07-29T02:12:12.187Z,20.87
2022-07-29T02:14:47.587Z,20.81
2022-07-29T02:17:27.787Z,20.82
2022-07-29T02:20:03.315Z,20.81
2022-07-29T02:22:37.987Z,20.83
2022-07-29T02:25:14.167Z,20.81
2022-07-29T02:27:46.871Z,20.78
2022-07-29T02:30:17.716Z,20.77
2022-07-29T02:32:52.551Z,20.74
2022-07-29T02:35:24.056Z,20.73
2022-07-29T02:38:08.428Z,20.74
2022-07-29T02:40:42.185Z,20.74
2022-07-29T02:43:14.612Z,20.77
2022-07-29T02:45:45.589Z,20.73
2022-07-29T02:48:22.413Z,20.74
2022-07-29T02:51:01.838Z,20.76
2022-07-29T02:53:37.388Z,20.72
2022-07-29T02:56:13.122Z,20.69
2022-07-29T02:58:49.240Z,20.70
2022-07-29T03:01:22.810Z,20.68
2022-07-29T03:03:58.160Z,20.68
2022-07-29T03:06:38.438Z,20.58
2022-07-29T03:09:13.599Z,20.52
2022-07-29T03:11:49.334Z,20.51
2022-07-29T03:14:24.046Z,20.46
2022-07-29T03:16:55.393Z,20.41
2022-07-29T03:19:28.700Z,20.38
2022-07-29T03:22:00.905Z,20.34
2022-07-29T03:24:37.101Z,20.44
2022-07-29T03:27:08.625Z,20.50
2022-07-29T03:29:38.837Z,20.51
2022-07-29T03:32:10.919Z,20.55
2022-07-29T03:34:43.740Z,20.53
2022-07-29T03:37:13.976Z,20.52
2022-07-29T03:39:47.260Z,20.53
2022-07-29T03:42:20.440Z,20.51
2022-07-29T03:44:52.979Z,20.52
2022-07-29T03:47:49.820Z,20.53
2022-07-29T03:50:22.015Z,20.57
2022-07-29T03:52:53.220Z,20.47
2022-07-29T03:55:23.987Z,20.43
2022-07-29T03:57:54.677Z,20.50
2022-07-29T04:00:25.796Z,20.53
2022-07-29T04:02:55.648Z,20.50
2022-07-29T04:05:28.477Z,20.49
2022-07-29T04:07:58.799Z,20.47
2022-07-29T04:10:31.866Z,20.41
2022-07-29T04:13:03.824Z,20.46
2022-07-29T04:15:34.201Z,20.46
2022-07-29T04:18:04.583Z,20.43
2022-07-29T04:20:37.600Z,20.44
2022-07-29T04:23:07.983Z,20.48
2022-07-29T04:25:42.327Z,20.55
2022-07-29T04:28:13.742Z,20.61
2022-07-29T04:30:44.635Z,20.63
2022-07-29T04:33:15.110Z,20.70
2022-07-29T04:35:50.436Z,20.80
2022-07-29T04:38:23.259Z,20.82
2022-07-29T04:40:53.195Z,20.78
2022-07-29T04:43:24.752Z,20.84
2022-07-29T04:45:55.221Z,20.90
2022-07-29T04:48:28.702Z,20.94
2022-07-29T04:51:01.932Z,20.97
2022-07-29T04:53:32.240Z,21.03
2022-07-29T04:56:02.473Z,21.06
2022-07-29T04:58:32.655Z,21.17
2022-07-29T05:01:02.841Z,21.18
2022-07-29T05:03:33.121Z,21.23
2022-07-29T05:06:05.989Z,21.33
2022-07-29T05:08:36.205Z,21.44
2022-07-29T05:11:11.535Z,21.53
2022-07-29T05:13:46.154Z,21.61
2022-07-29T05:16:17.618Z,21.65
2022-07-29T05:18:47.880Z,21.59
2022-07-29T05:21:21.029Z,21.64
2022-07-29T05:23:51.427Z,21.76
2022-07-29T05:26:21.782Z,21.86
2022-07-29T05:28:52.194Z,21.90
2022-07-29T05:31:22.407Z,22.03
2022-07-29T05:33:52.590Z,22.08
2022-07-29T05:36:25.337Z,22.19
2022-07-29T05:38:55.843Z,22.25
2022-07-29T05:41:25.991Z,22.32
2022-07-29T05:43:56.078Z,22.39
2022-07-29T05:46:26.334Z,22.49
2022-07-29T05:48:57.437Z,22.56
2022-07-29T05:51:30.970Z,22.64
2022-07-29T05:54:01.171Z,22.74
2022-07-29T05:56:31.571Z,22.82
2022-07-29T05:59:02.194Z,22.89
2022-07-29T06:01:32.641Z,22.95
2022-07-29T06:04:03.130Z,23.07
2022-07-29T06:06:35.949Z,23.17
2022-07-29T06:09:12.470Z,23.25
2022-07-29T06:11:43.656Z,23.34
2022-07-29T06:14:14.208Z,23.38
2022-07-29T06:16:45.420Z,23.42
2022-07-29T06:19:15.730Z,23.47
2022-07-29T06:21:50.310Z,23.56
2022-07-29T06:24:20.810Z,23.49
2022-07-29T06:26:51.149Z,23.44
2022-07-29T06:29:21.326Z,23.46
2022-07-29T06:31:51.534Z,23.49
2022-07-29T06:34:21.743Z,23.42
2022-07-29T06:36:55.224Z,23.46
2022-07-29T06:39:26.668Z,23.50
2022-07-29T06:41:56.910Z,23.55
2022-07-29T06:44:28.650Z,23.63
2022-07-29T06:46:58.838Z,23.71
2022-07-29T06:49:29.028Z,23.75
2022-07-29T06:52:01.884Z,23.79
2022-07-29T06:54:32.697Z,23.86
2022-07-29T06:57:03.006Z,23.99
2022-07-29T06:59:35.787Z,24.05
2022-07-29T07:02:06.417Z,24.13
2022-07-29T07:04:36.762Z,24.13
2022-07-29T07:07:09.713Z,24.16
2022-07-29T07:09:40.854Z,24.25
2022-07-29T07:12:11.997Z,24.32
2022-07-29T07:14:43.649Z,24.36
2022-07-29T07:17:13.874Z,24.40
2022-07-29T07:19:44.127Z,24.43
2022-07-29T07:22:17.080Z,24.44
2022-07-29T07:24:47.241Z,24.45
2022-07-29T07:27:17.432Z,24.61
2022-07-29T07:29:48.055Z,24.59
2022-07-29T07:32:18.488Z,24.63
2022-07-29T07:34:48.466Z,24.58
2022-07-29T07:37:21.687Z,24.64
2022-07-29T07:39:51.856Z,24.76
2022-07-29T07:42:22.106Z,24.84
2022-07-29T07:45:12.517Z,24.96
2022-07-29T07:47:43.265Z,25.09
2022-07-29T07:50:19.002Z,25.24
2022-07-29T07:52:58.856Z,25.48
2022-07-29T07:55:53.581Z,25.54
2022-07-29T07:58:20.733Z,25.39
2022-07-29T08:00:51.009Z,25.36
2022-07-29T08:03:20.966Z,25.32
2022-07-29T08:05:52.143Z,25.39
2022-07-29T08:08:24.927Z,25.49
2022-07-29T08:10:57.946Z,25.77
2022-07-29T08:13:31.606Z,25.94
2022-07-29T08:16:03.017Z,26.00
2022-07-29T08:18:35.266Z,26.23
2022-07-29T08:21:05.499Z,26.28
2022-07-29T08:23:46.115Z,26.43
2022-07-29T08:26:19.632Z,26.34
2022-07-29T08:28:51.931Z,26.33
2022-07-29T08:31:22.156Z,26.95
2022-07-29T08:33:52.075Z,27.60
2022-07-29T08:36:22.334Z,28.45
2022-07-29T08:38:54.884Z,29.21
2022-07-29T08:41:25.640Z,29.83
2022-07-29T08:43:56.264Z,30.57
2022-07-29T08:46:27.008Z,31.48
2022-07-29T08:48:57.392Z,32.31
2022-07-29T08:51:31.580Z,33.17
2022-07-29T08:54:05.364Z,33.60
2022-07-29T08:56:36.123Z,34.01
2022-07-29T08:59:08.843Z,34.21
2022-07-29T09:01:45.258Z,34.78
2022-07-29T09:04:17.151Z,34.82
2022-07-29T09:06:51.667Z,33.97
2022-07-29T09:09:24.537Z,33.37
2022-07-29T09:11:55.469Z,32.82
2022-07-29T09:14:25.841Z,33.49
2022-07-29T09:16:58.635Z,33.34
2022-07-29T09:19:35.355Z,32.97
2022-07-29T09:22:08.223Z,33.11
2022-07-29T09:24:47.107Z,34.23
2022-07-29T09:27:27.562Z,35.18
2022-07-29T09:30:02.810Z,35.34
2022-07-29T09:32:34.230Z,34.73
2022-07-29T09:35:21.718Z,34.30
2022-07-29T09:37:52.478Z,34.61
2022-07-29T09:40:29.363Z,34.28
2022-07-29T09:43:00.070Z,34.11
2022-07-29T09:45:33.355Z,35.00
2022-07-29T09:48:04.641Z,35.63
2022-07-29T09:50:43.222Z,35.36
2022-07-29T09:53:14.128Z,35.63
2022-07-29T09:55:54.016Z,36.10
2022-07-29T09:58:25.922Z,36.40
2022-07-29T10:01:00.675Z,36.61
2022-07-29T10:03:31.047Z,36.90
2022-07-29T10:06:14.651Z,36.88
2022-07-29T10:08:45.994Z,36.70
2022-07-29T10:11:21.270Z,36.86
2022-07-29T10:13:52.613Z,36.94
2022-07-29T10:16:22.825Z,36.94
2022-07-29T10:18:53.366Z,36.61
2022-07-29T10:21:35.773Z,36.92
2022-07-29T10:24:14.823Z,37.39
2022-07-29T10:26:49.142Z,37.34
2022-07-29T10:29:19.375Z,37.39
2022-07-29T10:32:04.016Z,37.80
2022-07-29T10:34:56.989Z,37.78
2022-07-29T10:37:35.439Z,37.85
2022-07-29T10:40:34.004Z,37.59
2022-07-29T10:43:22.264Z,37.52
2022-07-29T10:45:59.873Z,37.11
2022-07-29T10:48:30.789Z,36.06
2022-07-29T10:51:04.165Z,35.36
2022-07-29T10:53:54.178Z,34.87
2022-07-29T10:56:33.497Z,34.57
2022-07-29T10:59:36.315Z,35.40
2022-07-29T11:05:40.093Z,36.00
2022-07-29T11:08:28.393Z,35.86
2022-07-29T11:11:37.882Z,35.41
2022-07-29T11:14:10.473Z,36.17
2022-07-29T11:17:10.370Z,37.01
2022-07-29T11:19:50.987Z,36.80
2022-07-29T11:22:37.157Z,37.35
2022-07-29T11:28:23.108Z,37.44
2022-07-29T11:30:58.384Z,37.81
2022-07-29T11:33:56.403Z,36.87
2022-07-29T11:36:28.314Z,36.04
2022-07-29T11:39:37.059Z,35.70
2022-07-29T11:42:44.403Z,36.97
2022-07-29T11:45:44.187Z,36.35
2022-07-29T11:48:28.482Z,36.03
2022-07-29T11:51:03.600Z,35.70
2022-07-29T11:53:38.101Z,34.69
2022-07-29T11:56:12.264Z,34.07
2022-07-29T11:58:47.201Z,33.58
2022-07-29T12:01:17.995Z,33.34
2022-07-29T12:03:48.381Z,33.41
2022-07-29T12:06:21.276Z,33.87
2022-07-29T12:08:51.619Z,34.90
2022-07-29T12:11:23.814Z,35.08
2022-07-29T12:13:54.864Z,35.49
2022-07-29T12:16:29.409Z,37.49
2022-07-29T12:19:04.789Z,39.13
2022-07-29T12:21:53.685Z,40.08
2022-07-29T12:24:27.662Z,39.96
2022-07-29T12:27:00.801Z,38.18
2022-07-29T12:29:35.476Z,37.79
2022-07-29T12:32:14.209Z,37.04
2022-07-29T12:34:45.593Z,36.56
2022-07-29T12:37:18.704Z,36.47
2022-07-29T12:39:49.006Z,36.70
2022-07-29T12:42:20.117Z,38.62
2022-07-29T12:44:55.096Z,39.71
2022-07-29T12:47:25.511Z,40.16
2022-07-29T12:50:13.505Z,39.90
2022-07-29T12:52:46.330Z,39.75
2022-07-29T12:55:16.602Z,40.22
2022-07-29T12:57:51.770Z,40.37
2022-07-29T13:00:27.587Z,41.06
2022-07-29T13:03:00.416Z,41.29
2022-07-29T13:05:49.178Z,41.03
2022-07-29T13:08:23.317Z,40.43
2022-07-29T13:10:53.681Z,41.30
2022-07-29T13:13:29.742Z,42.28
2022-07-29T13:16:11.695Z,42.63
2022-07-29T13:18:42.412Z,42.29
2022-07-29T13:21:19.072Z,40.60
2022-07-29T13:23:51.995Z,38.66
2022-07-29T13:26:22.285Z,37.22
2022-07-29T13:28:52.544Z,36.33
2022-07-29T13:31:23.142Z,35.62
2022-07-29T13:33:53.381Z,34.94
2022-07-29T13:36:24.795Z,34.37
2022-07-29T13:38:57.650Z,33.71
2022-07-29T13:41:28.300Z,33.24
2022-07-29T13:43:58.875Z,32.82
2022-07-29T13:46:29.101Z,32.60
2022-07-29T13:48:59.377Z,32.39
2022-07-29T13:51:29.575Z,32.00
2022-07-29T13:54:02.459Z,31.77
2022-07-29T13:56:32.882Z,31.46
2022-07-29T13:59:03.140Z,31.21
2022-07-29T14:01:34.149Z,31.03
2022-07-29T14:04:04.369Z,30.91
2022-07-29T14:06:34.528Z,30.71
2022-07-29T14:09:09.699Z,30.63
2022-07-29T14:11:40.825Z,30.37
2022-07-29T14:14:11.687Z,30.27
2022-07-29T14:16:47.616Z,30.37
2022-07-29T14:19:20.693Z,30.27
2022-07-29T14:21:51.218Z,30.08
2022-07-29T14:24:24.330Z,30.08
2022-07-29T14:26:56.294Z,29.94
2022-07-29T14:29:37.582Z,29.64
2022-07-29T14:32:10.108Z,29.62
2022-07-29T14:34:41.208Z,29.70
2022-07-29T14:37:15.813Z,29.71
2022-07-29T14:39:49.028Z,29.76
2022-07-29T14:42:19.241Z,29.76
2022-07-29T14:44:50.397Z,29.78
2022-07-29T14:47:20.668Z,29.80
2022-07-29T14:49:50.792Z,29.73
2022-07-29T14:52:20.748Z,29.65
2022-07-29T14:54:53.565Z,29.58
2022-07-29T14:57:23.915Z,29.31
2022-07-29T14:59:55.026Z,29.23
2022-07-29T15:02:39.991Z,28.90
2022-07-29T15:05:15.346Z,27.80
2022-07-29T15:07:45.691Z,27.05
2022-07-29T15:10:18.564Z,26.36
2022-07-29T15:12:49.121Z,25.83
2022-07-29T15:15:19.006Z,25.52
2022-07-29T15:17:49.236Z,25.34
2022-07-29T15:20:19.864Z,24.95
2022-07-29T15:22:50.076Z,24.83
2022-07-29T15:25:23.002Z,24.93
2022-07-29T15:27:54.799Z,24.96
2022-07-29T15:30:33.565Z,24.95
2022-07-29T15:33:05.714Z,24.81
2022-07-29T15:35:40.026Z,24.93
2022-07-29T15:38:11.160Z,25.14
2022-07-29T15:40:45.489Z,25.27
2022-07-29T15:43:15.645Z,25.51
2022-07-29T15:46:09.147Z,25.75
2022-07-29T15:48:43.030Z,26.02
2022-07-29T15:51:13.360Z,25.97
2022-07-29T15:57:10.887Z,25.93
2022-07-29T15:59:41.340Z,25.74
2022-07-29T16:02:11.355Z,25.72
2022-07-29T16:04:41.567Z,25.76
2022-07-29T16:07:11.728Z,26.04
2022-07-29T16:09:41.925Z,26.07
2022-07-29T16:12:15.630Z,26.14
2022-07-29T16:14:46.160Z,26.13
2022-07-29T16:17:16.500Z,26.25
2022-07-29T16:19:46.908Z,26.46
2022-07-29T16:22:16.873Z,26.57
2022-07-29T16:24:47.109Z,26.64
2022-07-29T16:27:24.846Z,26.71
2022-07-29T16:29:55.766Z,26.85
2022-07-29T16:32:25.975Z,26.99
2022-07-29T16:34:56.164Z,27.05
2022-07-29T16:37:28.834Z,27.12
2022-07-29T16:39:59.136Z,26.98
2022-07-29T16:42:45.938Z,26.97
2022-07-29T16:45:17.994Z,26.89
2022-07-29T16:47:51.604Z,26.95
2022-07-29T16:50:22.978Z,26.97
2022-07-29T16:52:53.138Z,26.96
2022-07-29T16:55:23.660Z,26.80
2022-07-29T16:57:56.577Z,26.89
2022-07-29T17:00:26.980Z,26.91
2022-07-29T17:02:56.935Z,26.93
2022-07-29T17:05:27.382Z,26.77
2022-07-29T17:07:58.573Z,26.68
2022-07-29T17:10:30.379Z,26.66
2022-07-29T17:13:03.249Z,26.65
2022-07-29T17:15:36.383Z,26.68
2022-07-29T17:18:12.347Z,26.66
2022-07-29T17:20:45.648Z,26.61
2022-07-29T17:23:15.954Z,26.55
2022-07-29T17:25:46.155Z,26.54
2022-07-29T17:28:18.963Z,26.51
2022-07-29T17:30:49.166Z,26.54
2022-07-29T17:33:19.334Z,26.24
2022-07-29T17:36:01.968Z,26.04
2022-07-29T17:38:32.137Z,25.78
2022-07-29T17:41:02.398Z,25.74
2022-07-29T17:43:40.556Z,25.76
2022-07-29T17:46:11.546Z,25.78
2022-07-29T17:48:41.802Z,25.78
2022-07-29T17:51:12.140Z,25.84
2022-07-29T17:53:42.067Z,25.82
2022-07-29T17:56:12.213Z,25.71
2022-07-29T17:58:47.450Z,25.61
2022-07-29T18:01:18.041Z,25.60
2022-07-29T18:03:48.359Z,25.64
2022-07-29T18:06:18.645Z,25.65
2022-07-29T18:08:49.106Z,25.66
2022-07-29T18:11:19.071Z,25.65
2022-07-29T18:13:52.280Z,25.66
2022-07-29T18:19:44.443Z,25.64
2022-07-29T18:22:15.224Z,25.63
2022-07-29T18:24:45.492Z,25.60
2022-07-29T18:27:15.661Z,25.56
2022-07-29T18:29:51.161Z,25.53
2022-07-29T18:32:28.726Z,25.48
2022-07-29T18:35:02.726Z,25.38
2022-07-29T18:38:00.851Z,25.41
2022-07-29T18:40:25.838Z,25.38
2022-07-29T18:42:56.200Z,25.40
2022-07-29T18:45:29.122Z,25.40
2022-07-29T18:47:59.582Z,25.43
2022-07-29T18:50:29.957Z,25.39
2022-07-29T18:53:03.402Z,25.36
2022-07-29T18:55:33.657Z,25.33
2022-07-29T18:58:03.898Z,25.35
2022-07-29T19:00:36.689Z,25.35
2022-07-29T19:03:07.174Z,25.27
2022-07-29T19:05:37.702Z,25.22
2022-07-29T19:08:08.108Z,25.22
2022-07-29T19:10:38.303Z,25.19
2022-07-29T19:13:08.703Z,25.20
2022-07-29T19:15:41.591Z,25.19
2022-07-29T19:18:13.326Z,25.20
2022-07-29T19:20:43.782Z,25.17
2022-07-29T19:23:13.747Z,25.13
2022-07-29T19:25:53.933Z,25.13
2022-07-29T19:28:24.487Z,25.13
2022-07-29T19:30:57.295Z,25.05
2022-07-29T19:33:27.502Z,25.00
2022-07-29T19:36:05.548Z,24.90
2022-07-29T19:38:40.683Z,24.85
2022-07-29T19:41:11.012Z,24.92
2022-07-29T19:43:50.965Z,25.00
2022-07-29T19:46:30.791Z,24.89
2022-07-29T19:49:01.446Z,24.94
2022-07-29T19:51:31.808Z,24.96
2022-07-29T19:54:01.991Z,24.80
2022-07-29T19:56:32.186Z,24.64
2022-07-29T19:59:02.874Z,24.45
2022-07-29T20:01:40.285Z,24.44
2022-07-29T20:04:10.553Z,24.41
2022-07-29T20:06:41.017Z,24.45
2022-07-29T20:09:16.903Z,24.44
2022-07-29T20:11:50.735Z,24.31
2022-07-29T20:14:21.107Z,24.25
2022-07-29T20:16:54.530Z,24.23
2022-07-29T20:19:24.844Z,24.26
2022-07-29T20:21:55.057Z,24.24
2022-07-29T20:24:25.555Z,24.24
2022-07-29T20:26:55.488Z,24.30
2022-07-29T20:29:25.950Z,24.36
2022-07-29T20:31:58.562Z,24.38
2022-07-29T20:34:28.876Z,24.40
2022-07-29T20:37:00.441Z,24.42
2022-07-29T20:39:31.223Z,24.45
2022-07-29T20:42:01.131Z,24.50
2022-07-29T20:44:31.293Z,24.42
2022-07-29T20:47:04.215Z,24.29
2022-07-29T20:49:36.334Z,24.22
2022-07-29T20:52:06.742Z,24.16
2022-07-29T20:54:37.054Z,24.21
2022-07-29T20:57:07.628Z,24.18
2022-07-29T20:59:38.607Z,24.03
2022-07-29T21:02:13.770Z,23.91
2022-07-29T21:04:44.122Z,23.87
2022-07-29T21:07:14.319Z,23.95
2022-07-29T21:09:44.627Z,23.84
2022-07-29T21:12:14.836Z,23.78
2022-07-29T21:14:51.901Z,23.71
2022-07-29T21:17:24.785Z,23.71
2022-07-29T21:19:55.492Z,23.67
2022-07-29T21:22:25.761Z,23.51
2022-07-29T21:24:55.921Z,23.24
2022-07-29T21:27:38.657Z,23.22
2022-07-29T21:30:11.692Z,23.20
2022-07-29T21:32:44.708Z,23.22
2022-07-29T21:35:31.391Z,23.24
2022-07-29T21:38:05.248Z,23.21
2022-07-29T21:40:35.608Z,23.15
2022-07-29T21:43:06.144Z,22.95
2022-07-29T21:45:36.018Z,22.84
2022-07-29T21:48:10.403Z,22.78
2022-07-29T21:50:40.722Z,22.78
2022-07-29T21:53:11.127Z,22.74
2022-07-29T21:55:44.730Z,22.69
2022-07-29T21:58:15.558Z,22.66
2022-07-29T22:00:46.865Z,22.58
2022-07-29T22:03:20.264Z,22.66
2022-07-29T22:05:50.454Z,22.56
2022-07-29T22:08:23.466Z,22.37
2022-07-29T22:10:53.717Z,22.32
2022-07-29T22:13:23.946Z,22.23
2022-07-29T22:15:54.091Z,22.23
2022-07-29T22:18:26.930Z,22.10
2022-07-29T22:20:57.150Z,22.04
2022-07-29T22:23:27.327Z,21.91
2022-07-29T22:25:57.545Z,21.84
2022-07-29T22:28:27.851Z,21.71
2022-07-29T22:30:58.351Z,21.52
2022-07-29T22:33:31.589Z,21.49
2022-07-29T22:36:01.771Z,21.51
2022-07-29T22:38:31.946Z,21.52
2022-07-29T22:41:03.366Z,21.47
2022-07-29T22:43:33.735Z,21.38
2022-07-29T22:46:04.179Z,21.31
2022-07-29T22:48:37.166Z,21.40
2022-07-29T22:51:07.959Z,21.45
2022-07-29T22:53:39.273Z,21.43
2022-07-29T22:56:09.500Z,21.57
2022-07-29T22:58:39.695Z,21.52
2022-07-29T23:01:10.339Z,21.44
2022-07-29T23:03:51.101Z,21.53
2022-07-29T23:06:22.084Z,21.43
2022-07-29T23:08:52.364Z,21.31
2022-07-29T23:11:22.526Z,21.32
2022-07-29T23:13:52.729Z,21.45
2022-07-29T23:16:26.631Z,21.46
2022-07-29T23:18:59.914Z,21.38
2022-07-29T23:21:30.168Z,21.37
2022-07-29T23:24:00.289Z,21.42
2022-07-29T23:26:31.884Z,21.35
2022-07-29T23:29:02.165Z,21.42
2022-07-29T23:31:32.347Z,21.48
2022-07-29T23:34:05.112Z,21.36
2022-07-29T23:36:35.480Z,21.17
2022-07-29T23:39:06.175Z,21.04
2022-07-29T23:41:36.411Z,20.99
2022-07-29T23:44:07.333Z,20.91
2022-07-29T23:46:37.631Z,21.05
2022-07-29T23:49:10.587Z,21.07
2022-07-29T23:51:40.914Z,21.13
2022-07-29T23:54:11.226Z,21.31
2022-07-29T23:56:41.533Z,21.35
2022-07-29T23:59:11.765Z,21.32
